sensor_id;sensor_type;location;lat;lon;timestamp;P1;durP1;ratioP1;P2;durP2;ratioP2
17177;SDS011;8704;52.006;4.374;2023-04-19T00:00:05;12.35;;;9.55;;
17177;SDS011;8704;52.006;4.374;2023-04-19T00:02:34;13.70;;;10.35;;
17177;SDS011;8704;52.006;4.374;2023-04-19T00:05:03;12.27;;;9.82;;
17177;SDS011;8704;52.006;4.374;2023-04-19T00:07:32;11.75;;;9.77;;
17177;SDS011;8704;52.006;4.374;2023-04-19T00:10:00;11.27;;;9.75;;
17177;SDS011;8704;52.006;4.374;2023-04-19T00:12:28;12.88;;;10.50;;
17177;SDS011;8704;52.006;4.374;2023-04-19T00:14:58;13.43;;;10.35;;
17177;SDS011;8704;52.006;4.374;2023-04-19T00:17:25;13.55;;;10.68;;
17177;SDS011;8704;52.006;4.374;2023-04-19T00:19:54;12.80;;;10.23;;
17177;SDS011;8704;52.006;4.374;2023-04-19T00:22:23;11.55;;;10.07;;
17177;SDS011;8704;52.006;4.374;2023-04-19T00:24:51;13.00;;;10.68;;
17177;SDS011;8704;52.006;4.374;2023-04-19T00:27:19;15.55;;;10.25;;
17177;SDS011;8704;52.006;4.374;2023-04-19T00:29:47;14.23;;;10.35;;
17177;SDS011;8704;52.006;4.374;2023-04-19T00:32:17;11.90;;;10.30;;
17177;SDS011;8704;52.006;4.374;2023-04-19T00:34:45;12.48;;;10.02;;
17177;SDS011;8704;52.006;4.374;2023-04-19T00:37:13;13.10;;;10.38;;
17177;SDS011;8704;52.006;4.374;2023-04-19T00:39:41;12.40;;;10.10;;
17177;SDS011;8704;52.006;4.374;2023-04-19T00:42:09;13.20;;;10.23;;
17177;SDS011;8704;52.006;4.374;2023-04-19T00:44:37;13.50;;;10.73;;
17177;SDS011;8704;52.006;4.374;2023-04-19T00:47:05;13.63;;;11.00;;
17177;SDS011;8704;52.006;4.374;2023-04-19T00:49:35;13.68;;;11.00;;
17177;SDS011;8704;52.006;4.374;2023-04-19T00:52:03;12.90;;;10.52;;
17177;SDS011;8704;52.006;4.374;2023-04-19T00:54:32;14.95;;;10.88;;
17177;SDS011;8704;52.006;4.374;2023-04-19T00:57:00;12.45;;;10.65;;
17177;SDS011;8704;52.006;4.374;2023-04-19T00:59:28;14.48;;;11.10;;
17177;SDS011;8704;52.006;4.374;2023-04-19T01:01:57;14.18;;;10.90;;
17177;SDS011;8704;52.006;4.374;2023-04-19T01:04:25;13.40;;;11.07;;
17177;SDS011;8704;52.006;4.374;2023-04-19T01:06:55;15.25;;;11.35;;
17177;SDS011;8704;52.006;4.374;2023-04-19T01:09:23;14.13;;;10.98;;
17177;SDS011;8704;52.006;4.374;2023-04-19T01:11:51;14.45;;;11.55;;
17177;SDS011;8704;52.006;4.374;2023-04-19T01:14:19;14.35;;;10.95;;
17177;SDS011;8704;52.006;4.374;2023-04-19T01:16:47;13.63;;;11.10;;
17177;SDS011;8704;52.006;4.374;2023-04-19T01:19:15;13.65;;;12.25;;
17177;SDS011;8704;52.006;4.374;2023-04-19T01:21:44;14.18;;;12.68;;
17177;SDS011;8704;52.006;4.374;2023-04-19T01:24:13;14.63;;;11.73;;
17177;SDS011;8704;52.006;4.374;2023-04-19T01:26:41;13.80;;;12.20;;
17177;SDS011;8704;52.006;4.374;2023-04-19T01:29:09;14.80;;;12.27;;
17177;SDS011;8704;52.006;4.374;2023-04-19T01:31:37;16.15;;;12.27;;
17177;SDS011;8704;52.006;4.374;2023-04-19T01:34:06;15.63;;;12.93;;
17177;SDS011;8704;52.006;4.374;2023-04-19T01:36:34;15.77;;;13.15;;
17177;SDS011;8704;52.006;4.374;2023-04-19T01:39:02;15.90;;;12.60;;
17177;SDS011;8704;52.006;4.374;2023-04-19T01:41:31;15.68;;;12.95;;
17177;SDS011;8704;52.006;4.374;2023-04-19T01:43:59;18.38;;;12.63;;
17177;SDS011;8704;52.006;4.374;2023-04-19T01:46:27;14.75;;;12.32;;
17177;SDS011;8704;52.006;4.374;2023-04-19T01:48:55;13.98;;;12.05;;
17177;SDS011;8704;52.006;4.374;2023-04-19T01:51:23;13.90;;;12.38;;
17177;SDS011;8704;52.006;4.374;2023-04-19T01:53:51;17.48;;;13.20;;
17177;SDS011;8704;52.006;4.374;2023-04-19T01:56:20;17.40;;;12.68;;
17177;SDS011;8704;52.006;4.374;2023-04-19T01:58:49;14.50;;;11.73;;
17177;SDS011;8704;52.006;4.374;2023-04-19T02:01:17;14.45;;;12.02;;
17177;SDS011;8704;52.006;4.374;2023-04-19T02:03:45;13.18;;;11.18;;
17177;SDS011;8704;52.006;4.374;2023-04-19T02:06:14;16.50;;;13.10;;
17177;SDS011;8704;52.006;4.374;2023-04-19T02:08:42;15.15;;;12.32;;
17177;SDS011;8704;52.006;4.374;2023-04-19T02:11:10;14.75;;;12.13;;
17177;SDS011;8704;52.006;4.374;2023-04-19T02:13:40;16.98;;;13.10;;
17177;SDS011;8704;52.006;4.374;2023-04-19T02:16:10;16.60;;;12.32;;
17177;SDS011;8704;52.006;4.374;2023-04-19T02:18:38;17.80;;;13.48;;
17177;SDS011;8704;52.006;4.374;2023-04-19T02:21:07;16.75;;;13.15;;
17177;SDS011;8704;52.006;4.374;2023-04-19T02:23:35;15.43;;;12.65;;
17177;SDS011;8704;52.006;4.374;2023-04-19T02:26:03;17.95;;;13.70;;
17177;SDS011;8704;52.006;4.374;2023-04-19T02:28:31;15.95;;;13.02;;
17177;SDS011;8704;52.006;4.374;2023-04-19T02:31:02;18.55;;;15.05;;
17177;SDS011;8704;52.006;4.374;2023-04-19T02:33:33;17.73;;;13.43;;
17177;SDS011;8704;52.006;4.374;2023-04-19T02:36:01;16.40;;;14.27;;
17177;SDS011;8704;52.006;4.374;2023-04-19T02:38:29;17.45;;;14.60;;
17177;SDS011;8704;52.006;4.374;2023-04-19T02:40:57;16.45;;;14.38;;
17177;SDS011;8704;52.006;4.374;2023-04-19T02:43:26;18.50;;;14.25;;
17177;SDS011;8704;52.006;4.374;2023-04-19T02:45:54;17.63;;;14.52;;
17177;SDS011;8704;52.006;4.374;2023-04-19T02:48:22;19.75;;;14.65;;
17177;SDS011;8704;52.006;4.374;2023-04-19T02:50:52;17.95;;;15.02;;
17177;SDS011;8704;52.006;4.374;2023-04-19T02:53:20;17.08;;;15.00;;
17177;SDS011;8704;52.006;4.374;2023-04-19T02:55:49;16.42;;;13.73;;
17177;SDS011;8704;52.006;4.374;2023-04-19T02:58:16;17.08;;;15.27;;
17177;SDS011;8704;52.006;4.374;2023-04-19T03:00:44;17.00;;;15.00;;
17177;SDS011;8704;52.006;4.374;2023-04-19T03:03:12;18.85;;;15.52;;
17177;SDS011;8704;52.006;4.374;2023-04-19T03:05:40;21.83;;;16.65;;
17177;SDS011;8704;52.006;4.374;2023-04-19T03:08:10;18.30;;;15.05;;
17177;SDS011;8704;52.006;4.374;2023-04-19T03:10:38;18.48;;;14.43;;
17177;SDS011;8704;52.006;4.374;2023-04-19T03:13:06;20.45;;;15.70;;
17177;SDS011;8704;52.006;4.374;2023-04-19T03:15:34;17.50;;;15.43;;
17177;SDS011;8704;52.006;4.374;2023-04-19T03:18:02;19.40;;;15.25;;
17177;SDS011;8704;52.006;4.374;2023-04-19T03:20:30;19.73;;;15.43;;
17177;SDS011;8704;52.006;4.374;2023-04-19T03:22:59;17.58;;;14.10;;
17177;SDS011;8704;52.006;4.374;2023-04-19T03:25:29;18.27;;;15.07;;
17177;SDS011;8704;52.006;4.374;2023-04-19T03:27:57;17.60;;;14.23;;
17177;SDS011;8704;52.006;4.374;2023-04-19T03:30:25;18.33;;;15.30;;
17177;SDS011;8704;52.006;4.374;2023-04-19T03:32:53;16.42;;;14.18;;
17177;SDS011;8704;52.006;4.374;2023-04-19T03:35:21;17.95;;;15.23;;
17177;SDS011;8704;52.006;4.374;2023-04-19T03:37:51;20.88;;;15.25;;
17177;SDS011;8704;52.006;4.374;2023-04-19T03:40:19;16.15;;;13.93;;
17177;SDS011;8704;52.006;4.374;2023-04-19T03:42:49;17.15;;;14.20;;
17177;SDS011;8704;52.006;4.374;2023-04-19T03:45:17;19.83;;;14.63;;
17177;SDS011;8704;52.006;4.374;2023-04-19T03:47:45;18.35;;;15.00;;
17177;SDS011;8704;52.006;4.374;2023-04-19T03:50:13;15.93;;;13.65;;
17177;SDS011;8704;52.006;4.374;2023-04-19T03:52:41;17.08;;;14.95;;
17177;SDS011;8704;52.006;4.374;2023-04-19T03:55:09;17.35;;;14.00;;
17177;SDS011;8704;52.006;4.374;2023-04-19T03:57:39;19.73;;;15.02;;
17177;SDS011;8704;52.006;4.374;2023-04-19T04:00:09;18.33;;;15.23;;
17177;SDS011;8704;52.006;4.374;2023-04-19T04:02:38;16.98;;;13.95;;
17177;SDS011;8704;52.006;4.374;2023-04-19T04:05:07;19.45;;;15.23;;
17177;SDS011;8704;52.006;4.374;2023-04-19T04:07:35;18.20;;;14.60;;
17177;SDS011;8704;52.006;4.374;2023-04-19T04:10:03;17.70;;;15.10;;
17177;SDS011;8704;52.006;4.374;2023-04-19T04:12:32;19.15;;;14.35;;
17177;SDS011;8704;52.006;4.374;2023-04-19T04:15:00;20.05;;;14.35;;
17177;SDS011;8704;52.006;4.374;2023-04-19T04:17:30;17.30;;;14.98;;
17177;SDS011;8704;52.006;4.374;2023-04-19T04:19:58;16.90;;;13.98;;
17177;SDS011;8704;52.006;4.374;2023-04-19T04:22:26;17.35;;;13.75;;
17177;SDS011;8704;52.006;4.374;2023-04-19T04:24:54;17.33;;;14.52;;
17177;SDS011;8704;52.006;4.374;2023-04-19T04:27:23;16.40;;;13.70;;
17177;SDS011;8704;52.006;4.374;2023-04-19T04:29:51;18.35;;;15.10;;
17177;SDS011;8704;52.006;4.374;2023-04-19T04:32:19;16.48;;;13.60;;
17177;SDS011;8704;52.006;4.374;2023-04-19T04:34:50;15.90;;;13.85;;
17177;SDS011;8704;52.006;4.374;2023-04-19T04:37:18;15.98;;;13.77;;
17177;SDS011;8704;52.006;4.374;2023-04-19T04:39:46;14.82;;;13.23;;
17177;SDS011;8704;52.006;4.374;2023-04-19T04:42:14;16.88;;;12.98;;
17177;SDS011;8704;52.006;4.374;2023-04-19T04:44:42;17.27;;;13.95;;
17177;SDS011;8704;52.006;4.374;2023-04-19T04:47:12;18.00;;;12.73;;
17177;SDS011;8704;52.006;4.374;2023-04-19T04:49:40;15.30;;;12.93;;
17177;SDS011;8704;52.006;4.374;2023-04-19T04:52:10;18.15;;;13.88;;
17177;SDS011;8704;52.006;4.374;2023-04-19T04:54:38;17.75;;;13.35;;
17177;SDS011;8704;52.006;4.374;2023-04-19T04:57:07;18.15;;;12.90;;
17177;SDS011;8704;52.006;4.374;2023-04-19T04:59:35;16.10;;;12.75;;
17177;SDS011;8704;52.006;4.374;2023-04-19T05:02:03;15.38;;;11.98;;
17177;SDS011;8704;52.006;4.374;2023-04-19T05:04:31;16.50;;;12.60;;
17177;SDS011;8704;52.006;4.374;2023-04-19T05:06:59;16.52;;;11.93;;
17177;SDS011;8704;52.006;4.374;2023-04-19T05:09:28;14.73;;;12.25;;
17177;SDS011;8704;52.006;4.374;2023-04-19T05:11:56;14.82;;;12.38;;
17177;SDS011;8704;52.006;4.374;2023-04-19T05:14:24;16.52;;;12.30;;
17177;SDS011;8704;52.006;4.374;2023-04-19T05:16:52;15.65;;;12.80;;
17177;SDS011;8704;52.006;4.374;2023-04-19T05:19:20;14.60;;;12.27;;
17177;SDS011;8704;52.006;4.374;2023-04-19T05:21:48;14.35;;;11.50;;
17177;SDS011;8704;52.006;4.374;2023-04-19T05:24:16;17.73;;;12.63;;
17177;SDS011;8704;52.006;4.374;2023-04-19T05:26:45;15.48;;;12.32;;
17177;SDS011;8704;52.006;4.374;2023-04-19T05:29:13;14.40;;;11.25;;
17177;SDS011;8704;52.006;4.374;2023-04-19T05:31:43;15.70;;;11.48;;
17177;SDS011;8704;52.006;4.374;2023-04-19T05:34:12;14.32;;;11.00;;
17177;SDS011;8704;52.006;4.374;2023-04-19T05:36:40;14.40;;;11.82;;
17177;SDS011;8704;52.006;4.374;2023-04-19T05:39:08;14.23;;;11.13;;
17177;SDS011;8704;52.006;4.374;2023-04-19T05:41:36;16.30;;;11.63;;
17177;SDS011;8704;52.006;4.374;2023-04-19T05:44:06;14.32;;;11.77;;
17177;SDS011;8704;52.006;4.374;2023-04-19T05:46:34;17.42;;;11.65;;
17177;SDS011;8704;52.006;4.374;2023-04-19T05:49:02;15.93;;;11.88;;
17177;SDS011;8704;52.006;4.374;2023-04-19T05:51:30;13.73;;;11.52;;
17177;SDS011;8704;52.006;4.374;2023-04-19T05:53:58;15.15;;;11.88;;
17177;SDS011;8704;52.006;4.374;2023-04-19T05:56:26;15.00;;;11.35;;
17177;SDS011;8704;52.006;4.374;2023-04-19T05:58:54;12.93;;;11.52;;
17177;SDS011;8704;52.006;4.374;2023-04-19T06:01:24;14.88;;;11.27;;
17177;SDS011;8704;52.006;4.374;2023-04-19T06:03:53;17.20;;;11.35;;
17177;SDS011;8704;52.006;4.374;2023-04-19T06:06:21;14.75;;;10.95;;
17177;SDS011;8704;52.006;4.374;2023-04-19T06:08:50;14.98;;;11.00;;
17177;SDS011;8704;52.006;4.374;2023-04-19T06:11:20;15.18;;;10.82;;
17177;SDS011;8704;52.006;4.374;2023-04-19T06:14:00;15.32;;;10.40;;
17177;SDS011;8704;52.006;4.374;2023-04-19T06:16:29;14.57;;;10.63;;
17177;SDS011;8704;52.006;4.374;2023-04-19T06:18:57;15.55;;;11.07;;
17177;SDS011;8704;52.006;4.374;2023-04-19T06:21:25;12.10;;;10.10;;
17177;SDS011;8704;52.006;4.374;2023-04-19T06:23:56;14.05;;;10.63;;
17177;SDS011;8704;52.006;4.374;2023-04-19T06:26:24;13.48;;;11.35;;
17177;SDS011;8704;52.006;4.374;2023-04-19T06:28:52;13.80;;;10.45;;
17177;SDS011;8704;52.006;4.374;2023-04-19T06:31:21;13.00;;;10.00;;
17177;SDS011;8704;52.006;4.374;2023-04-19T06:33:50;11.73;;;9.13;;
17177;SDS011;8704;52.006;4.374;2023-04-19T06:36:19;12.52;;;10.02;;
17177;SDS011;8704;52.006;4.374;2023-04-19T06:38:46;11.82;;;9.45;;
17177;SDS011;8704;52.006;4.374;2023-04-19T06:41:15;13.95;;;10.05;;
17177;SDS011;8704;52.006;4.374;2023-04-19T06:43:43;12.73;;;9.70;;
17177;SDS011;8704;52.006;4.374;2023-04-19T06:46:11;19.35;;;10.32;;
17177;SDS011;8704;52.006;4.374;2023-04-19T06:48:41;12.73;;;10.38;;
17177;SDS011;8704;52.006;4.374;2023-04-19T06:51:10;13.63;;;10.20;;
17177;SDS011;8704;52.006;4.374;2023-04-19T06:53:38;13.13;;;10.05;;
17177;SDS011;8704;52.006;4.374;2023-04-19T06:56:06;12.73;;;9.27;;
17177;SDS011;8704;52.006;4.374;2023-04-19T06:58:35;13.55;;;8.95;;
17177;SDS011;8704;52.006;4.374;2023-04-19T07:01:03;13.27;;;9.00;;
17177;SDS011;8704;52.006;4.374;2023-04-19T07:03:31;12.65;;;9.20;;
17177;SDS011;8704;52.006;4.374;2023-04-19T07:06:00;11.23;;;9.30;;
17177;SDS011;8704;52.006;4.374;2023-04-19T07:08:29;12.70;;;9.25;;
17177;SDS011;8704;52.006;4.374;2023-04-19T07:11:14;12.20;;;9.48;;
17177;SDS011;8704;52.006;4.374;2023-04-19T07:13:44;12.35;;;9.48;;
17177;SDS011;8704;52.006;4.374;2023-04-19T07:16:12;11.55;;;8.65;;
17177;SDS011;8704;52.006;4.374;2023-04-19T07:18:40;13.32;;;8.82;;
17177;SDS011;8704;52.006;4.374;2023-04-19T07:21:09;13.10;;;9.02;;
17177;SDS011;8704;52.006;4.374;2023-04-19T07:23:38;10.25;;;8.30;;
17177;SDS011;8704;52.006;4.374;2023-04-19T07:26:06;11.77;;;8.55;;
17177;SDS011;8704;52.006;4.374;2023-04-19T07:28:34;10.15;;;8.32;;
17177;SDS011;8704;52.006;4.374;2023-04-19T07:31:02;10.75;;;8.25;;
17177;SDS011;8704;52.006;4.374;2023-04-19T07:33:31;10.13;;;8.00;;
17177;SDS011;8704;52.006;4.374;2023-04-19T07:35:59;11.00;;;8.40;;
17177;SDS011;8704;52.006;4.374;2023-04-19T07:38:27;11.73;;;7.93;;
17177;SDS011;8704;52.006;4.374;2023-04-19T07:40:56;14.02;;;8.20;;
17177;SDS011;8704;52.006;4.374;2023-04-19T07:43:24;10.45;;;8.00;;
17177;SDS011;8704;52.006;4.374;2023-04-19T07:45:53;11.00;;;8.32;;
17177;SDS011;8704;52.006;4.374;2023-04-19T07:48:21;12.82;;;8.15;;
17177;SDS011;8704;52.006;4.374;2023-04-19T07:50:49;9.82;;;7.90;;
17177;SDS011;8704;52.006;4.374;2023-04-19T07:53:17;11.50;;;8.20;;
17177;SDS011;8704;52.006;4.374;2023-04-19T07:55:45;11.85;;;7.45;;
17177;SDS011;8704;52.006;4.374;2023-04-19T07:58:15;9.98;;;6.93;;
17177;SDS011;8704;52.006;4.374;2023-04-19T08:00:43;10.32;;;7.65;;
17177;SDS011;8704;52.006;4.374;2023-04-19T08:03:11;10.43;;;7.38;;
17177;SDS011;8704;52.006;4.374;2023-04-19T08:05:39;11.30;;;7.35;;
17177;SDS011;8704;52.006;4.374;2023-04-19T08:08:07;10.02;;;7.43;;
17177;SDS011;8704;52.006;4.374;2023-04-19T08:10:35;9.48;;;7.25;;
17177;SDS011;8704;52.006;4.374;2023-04-19T08:13:03;8.93;;;6.72;;
17177;SDS011;8704;52.006;4.374;2023-04-19T08:15:33;9.23;;;6.85;;
17177;SDS011;8704;52.006;4.374;2023-04-19T08:20:32;12.48;;;7.50;;
17177;SDS011;8704;52.006;4.374;2023-04-19T08:23:02;9.35;;;7.25;;
17177;SDS011;8704;52.006;4.374;2023-04-19T08:25:47;9.73;;;6.80;;
17177;SDS011;8704;52.006;4.374;2023-04-19T08:28:15;11.45;;;6.80;;
17177;SDS011;8704;52.006;4.374;2023-04-19T08:30:45;9.82;;;6.65;;
17177;SDS011;8704;52.006;4.374;2023-04-19T08:33:14;8.23;;;6.43;;
17177;SDS011;8704;52.006;4.374;2023-04-19T08:35:42;9.90;;;6.07;;
17177;SDS011;8704;52.006;4.374;2023-04-19T08:38:10;11.52;;;6.65;;
17177;SDS011;8704;52.006;4.374;2023-04-19T08:40:40;9.70;;;6.55;;
17177;SDS011;8704;52.006;4.374;2023-04-19T08:43:12;8.77;;;7.20;;
17177;SDS011;8704;52.006;4.374;2023-04-19T08:45:41;8.13;;;6.15;;
17177;SDS011;8704;52.006;4.374;2023-04-19T08:48:11;8.80;;;6.40;;
17177;SDS011;8704;52.006;4.374;2023-04-19T08:50:41;8.80;;;6.43;;
17177;SDS011;8704;52.006;4.374;2023-04-19T08:53:30;7.85;;;6.60;;
17177;SDS011;8704;52.006;4.374;2023-04-19T08:56:00;8.50;;;5.57;;
17177;SDS011;8704;52.006;4.374;2023-04-19T08:58:31;9.60;;;5.88;;
17177;SDS011;8704;52.006;4.374;2023-04-19T09:01:02;9.63;;;5.80;;
17177;SDS011;8704;52.006;4.374;2023-04-19T09:03:32;6.88;;;5.50;;
17177;SDS011;8704;52.006;4.374;2023-04-19T09:06:16;10.13;;;5.65;;
17177;SDS011;8704;52.006;4.374;2023-04-19T09:08:45;8.07;;;5.13;;
17177;SDS011;8704;52.006;4.374;2023-04-19T09:11:13;7.15;;;5.05;;
17177;SDS011;8704;52.006;4.374;2023-04-19T09:13:41;6.70;;;5.00;;
17177;SDS011;8704;52.006;4.374;2023-04-19T09:16:22;9.50;;;4.95;;
17177;SDS011;8704;52.006;4.374;2023-04-19T09:18:53;8.80;;;4.80;;
17177;SDS011;8704;52.006;4.374;2023-04-19T09:21:37;7.82;;;4.72;;
17177;SDS011;8704;52.006;4.374;2023-04-19T09:24:06;7.63;;;4.65;;
17177;SDS011;8704;52.006;4.374;2023-04-19T09:26:34;7.10;;;3.75;;
17177;SDS011;8704;52.006;4.374;2023-04-19T09:29:03;8.18;;;4.28;;
17177;SDS011;8704;52.006;4.374;2023-04-19T09:31:32;6.80;;;3.83;;
17177;SDS011;8704;52.006;4.374;2023-04-19T09:34:18;6.88;;;4.20;;
17177;SDS011;8704;52.006;4.374;2023-04-19T09:36:47;9.27;;;4.30;;
17177;SDS011;8704;52.006;4.374;2023-04-19T09:39:29;8.32;;;4.28;;
17177;SDS011;8704;52.006;4.374;2023-04-19T09:41:58;7.72;;;4.20;;
17177;SDS011;8704;52.006;4.374;2023-04-19T09:44:27;6.75;;;4.15;;
17177;SDS011;8704;52.006;4.374;2023-04-19T09:46:58;5.45;;;3.97;;
17177;SDS011;8704;52.006;4.374;2023-04-19T09:49:28;6.30;;;4.03;;
17177;SDS011;8704;52.006;4.374;2023-04-19T09:52:02;6.57;;;4.15;;
17177;SDS011;8704;52.006;4.374;2023-04-19T09:54:32;6.60;;;3.95;;
17177;SDS011;8704;52.006;4.374;2023-04-19T09:57:00;5.22;;;3.83;;
17177;SDS011;8704;52.006;4.374;2023-04-19T09:59:29;5.55;;;3.80;;
17177;SDS011;8704;52.006;4.374;2023-04-19T10:01:57;6.22;;;3.95;;
17177;SDS011;8704;52.006;4.374;2023-04-19T10:04:28;5.22;;;3.85;;
17177;SDS011;8704;52.006;4.374;2023-04-19T10:07:16;6.00;;;3.65;;
17177;SDS011;8704;52.006;4.374;2023-04-19T10:09:56;6.93;;;3.88;;
17177;SDS011;8704;52.006;4.374;2023-04-19T10:12:28;6.35;;;3.55;;
17177;SDS011;8704;52.006;4.374;2023-04-19T10:15:01;5.03;;;3.25;;
17177;SDS011;8704;52.006;4.374;2023-04-19T10:17:32;5.53;;;3.42;;
17177;SDS011;8704;52.006;4.374;2023-04-19T10:20:04;5.50;;;3.45;;
17177;SDS011;8704;52.006;4.374;2023-04-19T10:22:35;5.20;;;3.20;;
17177;SDS011;8704;52.006;4.374;2023-04-19T10:25:07;8.27;;;3.58;;
17177;SDS011;8704;52.006;4.374;2023-04-19T10:27:38;5.55;;;3.40;;
17177;SDS011;8704;52.006;4.374;2023-04-19T10:30:17;5.65;;;2.75;;
17177;SDS011;8704;52.006;4.374;2023-04-19T10:32:50;6.93;;;3.00;;
17177;SDS011;8704;52.006;4.374;2023-04-19T10:35:23;7.85;;;3.20;;
17177;SDS011;8704;52.006;4.374;2023-04-19T10:38:01;4.68;;;2.80;;
17177;SDS011;8704;52.006;4.374;2023-04-19T10:43:21;3.58;;;2.40;;
17177;SDS011;8704;52.006;4.374;2023-04-19T10:45:50;6.53;;;2.50;;
17177;SDS011;8704;52.006;4.374;2023-04-19T10:48:34;4.47;;;2.10;;
17177;SDS011;8704;52.006;4.374;2023-04-19T10:51:14;5.88;;;2.25;;
17177;SDS011;8704;52.006;4.374;2023-04-19T10:53:54;4.65;;;2.30;;
17177;SDS011;8704;52.006;4.374;2023-04-19T10:59:23;4.13;;;2.33;;
17177;SDS011;8704;52.006;4.374;2023-04-19T11:01:53;3.85;;;2.10;;
17177;SDS011;8704;52.006;4.374;2023-04-19T11:04:24;3.15;;;2.03;;
17177;SDS011;8704;52.006;4.374;2023-04-19T11:07:38;4.18;;;2.17;;
17177;SDS011;8704;52.006;4.374;2023-04-19T11:10:07;4.47;;;2.42;;
17177;SDS011;8704;52.006;4.374;2023-04-19T11:12:40;5.05;;;2.20;;
17177;SDS011;8704;52.006;4.374;2023-04-19T11:15:09;4.70;;;2.20;;
17177;SDS011;8704;52.006;4.374;2023-04-19T11:17:37;3.72;;;2.10;;
17177;SDS011;8704;52.006;4.374;2023-04-19T11:20:06;3.80;;;2.40;;
17177;SDS011;8704;52.006;4.374;2023-04-19T11:22:36;4.20;;;2.28;;
17177;SDS011;8704;52.006;4.374;2023-04-19T11:25:07;4.97;;;1.92;;
17177;SDS011;8704;52.006;4.374;2023-04-19T11:27:37;4.97;;;1.90;;
17177;SDS011;8704;52.006;4.374;2023-04-19T11:30:07;3.88;;;2.00;;
17177;SDS011;8704;52.006;4.374;2023-04-19T11:32:36;5.60;;;2.10;;
17177;SDS011;8704;52.006;4.374;2023-04-19T11:35:10;4.10;;;2.10;;
17177;SDS011;8704;52.006;4.374;2023-04-19T11:37:40;7.97;;;2.08;;
17177;SDS011;8704;52.006;4.374;2023-04-19T11:40:08;8.02;;;2.28;;
17177;SDS011;8704;52.006;4.374;2023-04-19T11:42:40;7.05;;;2.15;;
17177;SDS011;8704;52.006;4.374;2023-04-19T11:45:09;4.20;;;2.42;;
17177;SDS011;8704;52.006;4.374;2023-04-19T11:47:53;4.13;;;2.10;;
17177;SDS011;8704;52.006;4.374;2023-04-19T11:50:30;4.43;;;2.20;;
17177;SDS011;8704;52.006;4.374;2023-04-19T11:53:08;3.83;;;2.15;;
17177;SDS011;8704;52.006;4.374;2023-04-19T11:55:37;4.05;;;2.25;;
17177;SDS011;8704;52.006;4.374;2023-04-19T11:58:06;6.38;;;2.58;;
17177;SDS011;8704;52.006;4.374;2023-04-19T12:00:35;6.30;;;2.47;;
17177;SDS011;8704;52.006;4.374;2023-04-19T12:03:03;3.80;;;2.40;;
17177;SDS011;8704;52.006;4.374;2023-04-19T12:05:32;3.45;;;2.22;;
17177;SDS011;8704;52.006;4.374;2023-04-19T12:08:03;4.97;;;2.42;;
17177;SDS011;8704;52.006;4.374;2023-04-19T12:10:33;3.75;;;2.35;;
17177;SDS011;8704;52.006;4.374;2023-04-19T12:13:15;5.97;;;2.35;;
17177;SDS011;8704;52.006;4.374;2023-04-19T12:15:43;5.10;;;1.93;;
17177;SDS011;8704;52.006;4.374;2023-04-19T12:18:14;5.88;;;1.83;;
17177;SDS011;8704;52.006;4.374;2023-04-19T12:20:42;3.58;;;2.00;;
17177;SDS011;8704;52.006;4.374;2023-04-19T12:23:13;4.53;;;1.88;;
17177;SDS011;8704;52.006;4.374;2023-04-19T12:25:42;4.80;;;1.88;;
17177;SDS011;8704;52.006;4.374;2023-04-19T12:28:12;4.05;;;2.20;;
17177;SDS011;8704;52.006;4.374;2023-04-19T12:30:40;6.03;;;2.25;;
17177;SDS011;8704;52.006;4.374;2023-04-19T12:33:09;3.53;;;2.22;;
17177;SDS011;8704;52.006;4.374;2023-04-19T12:35:37;5.70;;;2.13;;
17177;SDS011;8704;52.006;4.374;2023-04-19T12:38:06;2.83;;;1.50;;
17177;SDS011;8704;52.006;4.374;2023-04-19T12:40:36;3.53;;;2.22;;
17177;SDS011;8704;52.006;4.374;2023-04-19T12:43:04;3.72;;;2.40;;
17177;SDS011;8704;52.006;4.374;2023-04-19T12:45:33;4.18;;;2.15;;
17177;SDS011;8704;52.006;4.374;2023-04-19T12:48:01;4.18;;;2.13;;
17177;SDS011;8704;52.006;4.374;2023-04-19T12:50:29;5.10;;;2.28;;
17177;SDS011;8704;52.006;4.374;2023-04-19T12:52:57;8.90;;;2.28;;
17177;SDS011;8704;52.006;4.374;2023-04-19T12:55:25;4.35;;;2.13;;
17177;SDS011;8704;52.006;4.374;2023-04-19T12:57:55;3.80;;;2.10;;
17177;SDS011;8704;52.006;4.374;2023-04-19T13:00:23;7.85;;;2.28;;
17177;SDS011;8704;52.006;4.374;2023-04-19T13:02:51;4.53;;;2.28;;
17177;SDS011;8704;52.006;4.374;2023-04-19T13:05:19;9.13;;;2.80;;
17177;SDS011;8704;52.006;4.374;2023-04-19T13:07:47;17.25;;;3.53;;
17177;SDS011;8704;52.006;4.374;2023-04-19T13:10:15;7.72;;;2.30;;
17177;SDS011;8704;52.006;4.374;2023-04-19T13:12:43;3.17;;;2.08;;
17177;SDS011;8704;52.006;4.374;2023-04-19T13:15:13;4.28;;;2.30;;
17177;SDS011;8704;52.006;4.374;2023-04-19T13:17:41;6.07;;;2.30;;
17177;SDS011;8704;52.006;4.374;2023-04-19T13:20:10;3.45;;;2.17;;
17177;SDS011;8704;52.006;4.374;2023-04-19T13:22:38;4.40;;;2.10;;
17177;SDS011;8704;52.006;4.374;2023-04-19T13:25:06;5.10;;;2.50;;
17177;SDS011;8704;52.006;4.374;2023-04-19T13:27:35;5.32;;;2.63;;
17177;SDS011;8704;52.006;4.374;2023-04-19T13:30:04;7.97;;;2.92;;
17177;SDS011;8704;52.006;4.374;2023-04-19T13:32:34;4.85;;;2.75;;
17177;SDS011;8704;52.006;4.374;2023-04-19T13:35:02;5.13;;;2.80;;
17177;SDS011;8704;52.006;4.374;2023-04-19T13:37:30;5.35;;;3.10;;
17177;SDS011;8704;52.006;4.374;2023-04-19T13:39:58;7.00;;;2.72;;
17177;SDS011;8704;52.006;4.374;2023-04-19T13:42:43;8.57;;;2.92;;
17177;SDS011;8704;52.006;4.374;2023-04-19T13:45:11;4.85;;;2.88;;
17177;SDS011;8704;52.006;4.374;2023-04-19T13:47:41;7.07;;;3.20;;
17177;SDS011;8704;52.006;4.374;2023-04-19T13:50:09;6.05;;;3.22;;
17177;SDS011;8704;52.006;4.374;2023-04-19T13:52:38;4.68;;;3.15;;
17177;SDS011;8704;52.006;4.374;2023-04-19T13:55:06;5.78;;;2.75;;
17177;SDS011;8704;52.006;4.374;2023-04-19T13:57:34;5.07;;;3.00;;
17177;SDS011;8704;52.006;4.374;2023-04-19T14:00:03;8.13;;;3.58;;
17177;SDS011;8704;52.006;4.374;2023-04-19T14:02:32;5.28;;;3.38;;
17177;SDS011;8704;52.006;4.374;2023-04-19T14:05:02;5.72;;;2.83;;
17177;SDS011;8704;52.006;4.374;2023-04-19T14:07:30;5.40;;;3.33;;
17177;SDS011;8704;52.006;4.374;2023-04-19T14:09:59;5.15;;;3.13;;
17177;SDS011;8704;52.006;4.374;2023-04-19T14:12:27;8.30;;;3.78;;
17177;SDS011;8704;52.006;4.374;2023-04-19T14:14:55;5.43;;;3.33;;
17177;SDS011;8704;52.006;4.374;2023-04-19T14:17:23;7.25;;;3.25;;
17177;SDS011;8704;52.006;4.374;2023-04-19T14:19:51;5.95;;;3.30;;
17177;SDS011;8704;52.006;4.374;2023-04-19T14:22:20;7.55;;;3.33;;
17177;SDS011;8704;52.006;4.374;2023-04-19T14:24:48;7.70;;;3.20;;
17177;SDS011;8704;52.006;4.374;2023-04-19T14:27:16;4.78;;;3.13;;
17177;SDS011;8704;52.006;4.374;2023-04-19T14:29:44;4.97;;;3.15;;
17177;SDS011;8704;52.006;4.374;2023-04-19T14:32:12;6.22;;;3.13;;
17177;SDS011;8704;52.006;4.374;2023-04-19T14:34:43;5.65;;;3.10;;
17177;SDS011;8704;52.006;4.374;2023-04-19T14:37:11;4.22;;;2.92;;
17177;SDS011;8704;52.006;4.374;2023-04-19T14:39:41;6.53;;;3.00;;
17177;SDS011;8704;52.006;4.374;2023-04-19T14:42:10;3.80;;;2.88;;
17177;SDS011;8704;52.006;4.374;2023-04-19T14:44:38;4.47;;;3.08;;
17177;SDS011;8704;52.006;4.374;2023-04-19T14:47:06;4.57;;;2.75;;
17177;SDS011;8704;52.006;4.374;2023-04-19T14:49:34;3.88;;;2.88;;
17177;SDS011;8704;52.006;4.374;2023-04-19T14:52:02;7.50;;;3.00;;
17177;SDS011;8704;52.006;4.374;2023-04-19T14:54:31;6.03;;;3.30;;
17177;SDS011;8704;52.006;4.374;2023-04-19T14:57:00;5.38;;;2.90;;
17177;SDS011;8704;52.006;4.374;2023-04-19T14:59:28;3.72;;;2.90;;
17177;SDS011;8704;52.006;4.374;2023-04-19T15:01:56;3.67;;;2.67;;
17177;SDS011;8704;52.006;4.374;2023-04-19T15:04:24;4.30;;;2.75;;
17177;SDS011;8704;52.006;4.374;2023-04-19T15:06:52;6.85;;;2.63;;
17177;SDS011;8704;52.006;4.374;2023-04-19T15:09:21;6.32;;;2.97;;